sensor_id;sensor_type;location;lat;lon;timestamp;P1;durP1;ratioP1;P2;durP2;ratioP2
8040;SDS011;4063;48.140;10.250;2023-05-24T00:02:09;4.80;;;4.40;;
8040;SDS011;4063;48.140;10.250;2023-05-24T00:04:37;8.73;;;4.82;;
8040;SDS011;4063;48.140;10.250;2023-05-24T00:07:04;6.28;;;4.35;;
8040;SDS011;4063;48.140;10.250;2023-05-24T00:09:30;6.43;;;4.35;;
8040;SDS011;4063;48.140;10.250;2023-05-24T00:11:57;5.38;;;4.82;;
8040;SDS011;4063;48.140;10.250;2023-05-24T00:14:23;4.72;;;4.32;;
8040;SDS011;4063;48.140;10.250;2023-05-24T00:16:49;4.43;;;4.03;;
8040;SDS011;4063;48.140;10.250;2023-05-24T00:19:16;5.10;;;4.60;;
8040;SDS011;4063;48.140;10.250;2023-05-24T00:21:45;4.75;;;4.35;;
8040;SDS011;4063;48.140;10.250;2023-05-24T00:24:13;17.48;;;3.25;;
8040;SDS011;4063;48.140;10.250;2023-05-24T00:26:39;55.25;;;5.72;;
8040;SDS011;4063;48.140;10.250;2023-05-24T00:29:05;5.65;;;3.53;;
8040;SDS011;4063;48.140;10.250;2023-05-24T00:31:31;6.97;;;4.20;;
8040;SDS011;4063;48.140;10.250;2023-05-24T00:33:58;9.82;;;5.10;;
8040;SDS011;4063;48.140;10.250;2023-05-24T00:36:24;10.85;;;4.22;;
8040;SDS011;4063;48.140;10.250;2023-05-24T00:38:50;5.80;;;5.22;;
8040;SDS011;4063;48.140;10.250;2023-05-24T00:41:17;6.40;;;5.32;;
8040;SDS011;4063;48.140;10.250;2023-05-24T00:43:43;4.97;;;4.57;;
8040;SDS011;4063;48.140;10.250;2023-05-24T00:46:12;6.00;;;5.40;;
8040;SDS011;4063;48.140;10.250;2023-05-24T00:48:39;6.35;;;5.45;;
8040;SDS011;4063;48.140;10.250;2023-05-24T00:51:07;6.07;;;4.88;;
8040;SDS011;4063;48.140;10.250;2023-05-24T00:53:34;7.93;;;4.40;;
8040;SDS011;4063;48.140;10.250;2023-05-24T00:56:00;35.25;;;7.45;;
8040;SDS011;4063;48.140;10.250;2023-05-24T00:58:27;18.95;;;5.05;;
8040;SDS011;4063;48.140;10.250;2023-05-24T01:00:56;9.32;;;5.28;;
8040;SDS011;4063;48.140;10.250;2023-05-24T01:03:23;4.53;;;3.28;;
8040;SDS011;4063;48.140;10.250;2023-05-24T01:05:53;4.22;;;3.83;;
8040;SDS011;4063;48.140;10.250;2023-05-24T01:10:57;12.55;;;5.28;;
8040;SDS011;4063;48.140;10.250;2023-05-24T01:13:35;8.32;;;3.63;;
8040;SDS011;4063;48.140;10.250;2023-05-24T01:16:24;15.32;;;5.88;;
8040;SDS011;4063;48.140;10.250;2023-05-24T01:18:51;6.95;;;5.38;;
8040;SDS011;4063;48.140;10.250;2023-05-24T01:21:44;6.72;;;6.13;;
8040;SDS011;4063;48.140;10.250;2023-05-24T01:29:26;8.95;;;5.65;;
8040;SDS011;4063;48.140;10.250;2023-05-24T01:31:54;7.40;;;6.53;;
8040;SDS011;4063;48.140;10.250;2023-05-24T01:34:20;6.88;;;6.25;;
8040;SDS011;4063;48.140;10.250;2023-05-24T01:36:46;17.98;;;6.97;;
8040;SDS011;4063;48.140;10.250;2023-05-24T01:39:12;6.13;;;4.68;;
8040;SDS011;4063;48.140;10.250;2023-05-24T01:41:40;15.40;;;5.75;;
8040;SDS011;4063;48.140;10.250;2023-05-24T01:47:25;10.15;;;7.18;;
8040;SDS011;4063;48.140;10.250;2023-05-24T01:49:53;8.05;;;7.25;;
8040;SDS011;4063;48.140;10.250;2023-05-24T01:52:21;7.15;;;6.45;;
8040;SDS011;4063;48.140;10.250;2023-05-24T01:54:50;8.18;;;7.38;;
8040;SDS011;4063;48.140;10.250;2023-05-24T01:57:17;8.23;;;7.43;;
8040;SDS011;4063;48.140;10.250;2023-05-24T01:59:44;7.90;;;7.05;;
8040;SDS011;4063;48.140;10.250;2023-05-24T02:02:10;7.70;;;6.95;;
8040;SDS011;4063;48.140;10.250;2023-05-24T02:04:37;7.25;;;6.55;;
8040;SDS011;4063;48.140;10.250;2023-05-24T02:07:03;8.60;;;7.63;;
8040;SDS011;4063;48.140;10.250;2023-05-24T02:09:30;10.15;;;7.85;;
8040;SDS011;4063;48.140;10.250;2023-05-24T02:11:56;7.60;;;6.80;;
8040;SDS011;4063;48.140;10.250;2023-05-24T02:14:22;42.35;;;7.35;;
8040;SDS011;4063;48.140;10.250;2023-05-24T02:16:48;6.15;;;5.20;;
8040;SDS011;4063;48.140;10.250;2023-05-24T02:19:15;10.35;;;8.50;;
8040;SDS011;4063;48.140;10.250;2023-05-24T02:21:41;8.57;;;7.78;;
8040;SDS011;4063;48.140;10.250;2023-05-24T02:24:07;9.68;;;8.60;;
8040;SDS011;4063;48.140;10.250;2023-05-24T02:26:36;9.27;;;8.15;;
8040;SDS011;4063;48.140;10.250;2023-05-24T02:29:04;8.65;;;7.85;;
8040;SDS011;4063;48.140;10.250;2023-05-24T02:31:30;9.70;;;8.70;;
8040;SDS011;4063;48.140;10.250;2023-05-24T02:33:56;11.25;;;8.95;;
8040;SDS011;4063;48.140;10.250;2023-05-24T02:36:22;9.10;;;8.27;;
8040;SDS011;4063;48.140;10.250;2023-05-24T02:38:48;9.85;;;8.95;;
8040;SDS011;4063;48.140;10.250;2023-05-24T02:41:14;11.02;;;9.38;;
8040;SDS011;4063;48.140;10.250;2023-05-24T02:43:42;9.68;;;8.77;;
8040;SDS011;4063;48.140;10.250;2023-05-24T02:46:08;9.95;;;9.02;;
8040;SDS011;4063;48.140;10.250;2023-05-24T02:48:34;12.18;;;9.50;;
8040;SDS011;4063;48.140;10.250;2023-05-24T02:51:00;10.55;;;9.55;;
8040;SDS011;4063;48.140;10.250;2023-05-24T02:53:30;10.43;;;9.43;;
8040;SDS011;4063;48.140;10.250;2023-05-24T02:55:57;10.00;;;9.07;;
8040;SDS011;4063;48.140;10.250;2023-05-24T02:58:23;10.15;;;9.07;;
8040;SDS011;4063;48.140;10.250;2023-05-24T03:00:49;10.55;;;9.32;;
8040;SDS011;4063;48.140;10.250;2023-05-24T03:03:15;10.23;;;9.23;;
8040;SDS011;4063;48.140;10.250;2023-05-24T03:05:41;10.85;;;9.75;;
8040;SDS011;4063;48.140;10.250;2023-05-24T03:08:07;10.60;;;9.52;;
8040;SDS011;4063;48.140;10.250;2023-05-24T03:10:33;10.45;;;8.93;;
8040;SDS011;4063;48.140;10.250;2023-05-24T03:13:01;11.05;;;9.20;;
8040;SDS011;4063;48.140;10.250;2023-05-24T03:15:27;10.95;;;9.85;;
8040;SDS011;4063;48.140;10.250;2023-05-24T03:17:53;10.32;;;9.32;;
8040;SDS011;4063;48.140;10.250;2023-05-24T03:20:19;11.27;;;9.93;;
8040;SDS011;4063;48.140;10.250;2023-05-24T03:22:47;10.55;;;9.45;;
8040;SDS011;4063;48.140;10.250;2023-05-24T03:25:16;10.90;;;9.90;;
8040;SDS011;4063;48.140;10.250;2023-05-24T03:27:42;13.05;;;9.73;;
8040;SDS011;4063;48.140;10.250;2023-05-24T03:30:09;11.15;;;9.13;;
8040;SDS011;4063;48.140;10.250;2023-05-24T03:32:35;10.98;;;9.00;;
8040;SDS011;4063;48.140;10.250;2023-05-24T03:35:02;9.75;;;8.77;;
8040;SDS011;4063;48.140;10.250;2023-05-24T03:37:28;10.32;;;9.32;;
8040;SDS011;4063;48.140;10.250;2023-05-24T03:39:54;9.93;;;8.93;;
8040;SDS011;4063;48.140;10.250;2023-05-24T03:42:20;10.65;;;8.43;;
8040;SDS011;4063;48.140;10.250;2023-05-24T03:44:46;10.80;;;8.57;;
8040;SDS011;4063;48.140;10.250;2023-05-24T03:47:12;10.23;;;8.50;;
8040;SDS011;4063;48.140;10.250;2023-05-24T03:49:38;13.23;;;8.52;;
8040;SDS011;4063;48.140;10.250;2023-05-24T03:52:06;11.13;;;8.48;;
8040;SDS011;4063;48.140;10.250;2023-05-24T03:54:32;10.70;;;8.63;;
8040;SDS011;4063;48.140;10.250;2023-05-24T03:56:59;13.20;;;7.43;;
8040;SDS011;4063;48.140;10.250;2023-05-24T03:59:25;9.13;;;6.60;;
8040;SDS011;4063;48.140;10.250;2023-05-24T04:01:51;8.55;;;6.50;;
8040;SDS011;4063;48.140;10.250;2023-05-24T04:04:17;9.68;;;5.93;;
8040;SDS011;4063;48.140;10.250;2023-05-24T04:06:43;10.55;;;5.82;;
8040;SDS011;4063;48.140;10.250;2023-05-24T04:09:09;10.95;;;5.28;;
8040;SDS011;4063;48.140;10.250;2023-05-24T04:11:35;6.80;;;5.53;;
8040;SDS011;4063;48.140;10.250;2023-05-24T04:14:01;8.80;;;5.40;;
8040;SDS011;4063;48.140;10.250;2023-05-24T04:16:27;8.05;;;5.00;;
8040;SDS011;4063;48.140;10.250;2023-05-24T04:18:55;8.23;;;5.10;;
8040;SDS011;4063;48.140;10.250;2023-05-24T04:21:22;12.70;;;5.28;;
8040;SDS011;4063;48.140;10.250;2023-05-24T04:23:48;10.27;;;5.15;;
8040;SDS011;4063;48.140;10.250;2023-05-24T04:26:14;5.07;;;4.57;;
8040;SDS011;4063;48.140;10.250;2023-05-24T04:28:41;6.70;;;4.72;;
8040;SDS011;4063;48.140;10.250;2023-05-24T04:31:07;11.95;;;4.90;;
8040;SDS011;4063;48.140;10.250;2023-05-24T04:33:35;5.88;;;3.08;;
8040;SDS011;4063;48.140;10.250;2023-05-24T04:36:03;5.63;;;3.17;;
8040;SDS011;4063;48.140;10.250;2023-05-24T04:38:29;3.63;;;2.55;;
8040;SDS011;4063;48.140;10.250;2023-05-24T04:41:02;5.35;;;2.88;;
8040;SDS011;4063;48.140;10.250;2023-05-24T04:43:28;3.70;;;2.90;;
8040;SDS011;4063;48.140;10.250;2023-05-24T04:45:56;6.90;;;3.40;;
8040;SDS011;4063;48.140;10.250;2023-05-24T04:48:23;6.20;;;3.40;;
8040;SDS011;4063;48.140;10.250;2023-05-24T04:50:55;7.43;;;3.25;;
8040;SDS011;4063;48.140;10.250;2023-05-24T04:53:22;6.38;;;3.05;;
8040;SDS011;4063;48.140;10.250;2023-05-24T04:55:48;5.65;;;3.00;;
8040;SDS011;4063;48.140;10.250;2023-05-24T04:58:14;5.40;;;3.85;;
8040;SDS011;4063;48.140;10.250;2023-05-24T05:00:40;7.30;;;3.63;;
8040;SDS011;4063;48.140;10.250;2023-05-24T05:03:06;5.47;;;3.77;;
8040;SDS011;4063;48.140;10.250;2023-05-24T05:05:32;10.93;;;4.13;;
8040;SDS011;4063;48.140;10.250;2023-05-24T05:07:59;8.32;;;3.35;;
8040;SDS011;4063;48.140;10.250;2023-05-24T05:10:25;10.52;;;3.88;;
8040;SDS011;4063;48.140;10.250;2023-05-24T05:12:51;5.85;;;3.63;;
8040;SDS011;4063;48.140;10.250;2023-05-24T05:15:19;12.00;;;4.50;;
8040;SDS011;4063;48.140;10.250;2023-05-24T05:17:45;6.30;;;3.50;;
8040;SDS011;4063;48.140;10.250;2023-05-24T05:20:11;5.68;;;3.35;;
8040;SDS011;4063;48.140;10.250;2023-05-24T05:22:37;8.65;;;3.45;;
8040;SDS011;4063;48.140;10.250;2023-05-24T05:25:03;8.75;;;4.05;;
8040;SDS011;4063;48.140;10.250;2023-05-24T05:27:30;8.88;;;3.90;;
8040;SDS011;4063;48.140;10.250;2023-05-24T05:29:56;7.72;;;3.70;;
8040;SDS011;4063;48.140;10.250;2023-05-24T05:32:22;4.55;;;3.35;;
8040;SDS011;4063;48.140;10.250;2023-05-24T05:34:48;7.90;;;3.72;;
8040;SDS011;4063;48.140;10.250;2023-05-24T05:37:14;12.38;;;4.30;;
8040;SDS011;4063;48.140;10.250;2023-05-24T05:39:40;7.07;;;3.83;;
8040;SDS011;4063;48.140;10.250;2023-05-24T05:42:05;7.20;;;3.75;;
8040;SDS011;4063;48.140;10.250;2023-05-24T05:44:31;6.82;;;3.80;;
8040;SDS011;4063;48.140;10.250;2023-05-24T05:46:57;12.02;;;4.70;;
8040;SDS011;4063;48.140;10.250;2023-05-24T05:49:23;11.75;;;3.95;;
8040;SDS011;4063;48.140;10.250;2023-05-24T05:51:49;11.98;;;4.43;;
8040;SDS011;4063;48.140;10.250;2023-05-24T05:54:17;5.88;;;3.53;;
8040;SDS011;4063;48.140;10.250;2023-05-24T05:56:43;6.50;;;3.65;;
8040;SDS011;4063;48.140;10.250;2023-05-24T05:59:11;10.40;;;4.72;;
8040;SDS011;4063;48.140;10.250;2023-05-24T06:01:38;7.00;;;4.00;;
8040;SDS011;4063;48.140;10.250;2023-05-24T06:04:05;11.20;;;4.05;;
8040;SDS011;4063;48.140;10.250;2023-05-24T06:06:30;9.90;;;3.83;;
8040;SDS011;4063;48.140;10.250;2023-05-24T06:08:57;5.95;;;3.63;;
8040;SDS011;4063;48.140;10.250;2023-05-24T06:11:23;8.52;;;2.90;;
8040;SDS011;4063;48.140;10.250;2023-05-24T06:13:50;3.92;;;2.50;;
8040;SDS011;4063;48.140;10.250;2023-05-24T06:16:16;8.13;;;2.97;;
8040;SDS011;4063;48.140;10.250;2023-05-24T06:18:42;6.07;;;3.00;;
8040;SDS011;4063;48.140;10.250;2023-05-24T06:21:08;6.57;;;2.85;;
8040;SDS011;4063;48.140;10.250;2023-05-24T06:23:37;7.47;;;3.38;;
8040;SDS011;4063;48.140;10.250;2023-05-24T06:26:04;6.70;;;3.10;;
8040;SDS011;4063;48.140;10.250;2023-05-24T06:28:34;11.55;;;4.40;;
8040;SDS011;4063;48.140;10.250;2023-05-24T06:31:00;9.70;;;4.38;;
8040;SDS011;4063;48.140;10.250;2023-05-24T06:33:27;8.27;;;4.55;;
8040;SDS011;4063;48.140;10.250;2023-05-24T06:35:53;9.00;;;4.05;;
8040;SDS011;4063;48.140;10.250;2023-05-24T06:38:19;7.22;;;4.07;;
8040;SDS011;4063;48.140;10.250;2023-05-24T06:40:45;10.27;;;5.10;;
8040;SDS011;4063;48.140;10.250;2023-05-24T06:43:11;10.35;;;4.10;;
8040;SDS011;4063;48.140;10.250;2023-05-24T06:45:37;11.70;;;4.30;;
8040;SDS011;4063;48.140;10.250;2023-05-24T06:48:03;8.63;;;4.60;;
8040;SDS011;4063;48.140;10.250;2023-05-24T06:50:29;14.50;;;5.22;;
8040;SDS011;4063;48.140;10.250;2023-05-24T06:52:55;10.07;;;4.55;;
8040;SDS011;4063;48.140;10.250;2023-05-24T06:55:22;9.57;;;4.57;;
8040;SDS011;4063;48.140;10.250;2023-05-24T06:57:48;8.73;;;4.70;;
8040;SDS011;4063;48.140;10.250;2023-05-24T07:00:14;7.57;;;3.85;;
8040;SDS011;4063;48.140;10.250;2023-05-24T07:02:40;10.90;;;4.82;;
8040;SDS011;4063;48.140;10.250;2023-05-24T07:05:06;14.02;;;4.80;;
8040;SDS011;4063;48.140;10.250;2023-05-24T07:07:39;12.77;;;4.95;;
8040;SDS011;4063;48.140;10.250;2023-05-24T07:10:06;10.18;;;4.75;;
8040;SDS011;4063;48.140;10.250;2023-05-24T07:12:32;7.72;;;4.78;;
8040;SDS011;4063;48.140;10.250;2023-05-24T07:14:58;13.52;;;4.88;;
8040;SDS011;4063;48.140;10.250;2023-05-24T07:17:24;11.27;;;4.78;;
8040;SDS011;4063;48.140;10.250;2023-05-24T07:19:50;12.57;;;4.78;;
8040;SDS011;4063;48.140;10.250;2023-05-24T07:22:16;10.18;;;4.65;;
8040;SDS011;4063;48.140;10.250;2023-05-24T07:24:42;9.25;;;4.35;;
8040;SDS011;4063;48.140;10.250;2023-05-24T07:27:08;10.60;;;4.55;;
8040;SDS011;4063;48.140;10.250;2023-05-24T07:29:34;11.15;;;5.13;;
8040;SDS011;4063;48.140;10.250;2023-05-24T07:32:00;8.20;;;4.60;;
8040;SDS011;4063;48.140;10.250;2023-05-24T07:34:26;8.38;;;4.50;;
8040;SDS011;4063;48.140;10.250;2023-05-24T07:36:54;8.85;;;4.85;;
8040;SDS011;4063;48.140;10.250;2023-05-24T07:39:21;8.45;;;4.47;;
8040;SDS011;4063;48.140;10.250;2023-05-24T07:41:49;8.93;;;4.72;;
8040;SDS011;4063;48.140;10.250;2023-05-24T07:44:15;10.30;;;4.28;;
8040;SDS011;4063;48.140;10.250;2023-05-24T07:46:41;10.65;;;4.75;;
8040;SDS011;4063;48.140;10.250;2023-05-24T07:49:08;12.55;;;4.90;;
8040;SDS011;4063;48.140;10.250;2023-05-24T07:51:33;8.52;;;4.53;;
8040;SDS011;4063;48.140;10.250;2023-05-24T07:54:00;8.93;;;4.55;;
8040;SDS011;4063;48.140;10.250;2023-05-24T07:56:26;10.55;;;4.95;;
8040;SDS011;4063;48.140;10.250;2023-05-24T07:58:54;9.35;;;4.88;;
8040;SDS011;4063;48.140;10.250;2023-05-24T08:01:27;9.02;;;4.90;;
8040;SDS011;4063;48.140;10.250;2023-05-24T08:03:53;10.13;;;4.95;;
8040;SDS011;4063;48.140;10.250;2023-05-24T08:06:20;10.32;;;4.75;;
8040;SDS011;4063;48.140;10.250;2023-05-24T08:08:46;12.50;;;5.55;;
8040;SDS011;4063;48.140;10.250;2023-05-24T08:11:12;8.73;;;4.65;;
8040;SDS011;4063;48.140;10.250;2023-05-24T08:13:38;9.38;;;4.95;;
8040;SDS011;4063;48.140;10.250;2023-05-24T08:16:06;13.15;;;5.38;;
8040;SDS011;4063;48.140;10.250;2023-05-24T08:18:31;9.52;;;4.88;;
8040;SDS011;4063;48.140;10.250;2023-05-24T08:20:58;6.38;;;4.57;;
8040;SDS011;4063;48.140;10.250;2023-05-24T08:23:24;23.70;;;5.55;;
8040;SDS011;4063;48.140;10.250;2023-05-24T08:25:53;11.50;;;5.40;;
8040;SDS011;4063;48.140;10.250;2023-05-24T08:28:19;10.82;;;5.05;;
8040;SDS011;4063;48.140;10.250;2023-05-24T08:30:47;8.18;;;4.95;;
8040;SDS011;4063;48.140;10.250;2023-05-24T08:33:13;7.45;;;4.75;;
8040;SDS011;4063;48.140;10.250;2023-05-24T08:35:39;7.75;;;4.82;;
8040;SDS011;4063;48.140;10.250;2023-05-24T08:38:05;11.02;;;5.07;;
8040;SDS011;4063;48.140;10.250;2023-05-24T08:40:31;10.27;;;4.45;;
8040;SDS011;4063;48.140;10.250;2023-05-24T08:42:58;7.63;;;4.35;;
8040;SDS011;4063;48.140;10.250;2023-05-24T08:45:24;8.10;;;4.53;;
8040;SDS011;4063;48.140;10.250;2023-05-24T08:47:50;9.43;;;4.93;;
8040;SDS011;4063;48.140;10.250;2023-05-24T08:50:16;6.95;;;4.88;;
8040;SDS011;4063;48.140;10.250;2023-05-24T08:52:42;15.38;;;6.35;;
8040;SDS011;4063;48.140;10.250;2023-05-24T08:55:10;10.10;;;6.30;;
8040;SDS011;4063;48.140;10.250;2023-05-24T08:57:36;7.30;;;4.38;;
8040;SDS011;4063;48.140;10.250;2023-05-24T09:00:04;10.60;;;5.18;;
8040;SDS011;4063;48.140;10.250;2023-05-24T09:02:31;10.45;;;4.60;;
8040;SDS011;4063;48.140;10.250;2023-05-24T09:04:57;10.40;;;4.53;;
8040;SDS011;4063;48.140;10.250;2023-05-24T09:07:24;5.40;;;4.07;;
8040;SDS011;4063;48.140;10.250;2023-05-24T09:09:57;10.82;;;4.75;;
8040;SDS011;4063;48.140;10.250;2023-05-24T09:12:25;8.02;;;5.03;;
8040;SDS011;4063;48.140;10.250;2023-05-24T09:14:52;11.10;;;4.75;;
8040;SDS011;4063;48.140;10.250;2023-05-24T09:17:18;7.65;;;4.63;;
8040;SDS011;4063;48.140;10.250;2023-05-24T09:19:48;10.80;;;5.43;;
8040;SDS011;4063;48.140;10.250;2023-05-24T09:22:15;10.35;;;4.63;;
8040;SDS011;4063;48.140;10.250;2023-05-24T09:24:47;12.38;;;5.07;;
8040;SDS011;4063;48.140;10.250;2023-05-24T09:27:16;10.70;;;4.88;;
8040;SDS011;4063;48.140;10.250;2023-05-24T09:29:45;12.57;;;5.15;;
8040;SDS011;4063;48.140;10.250;2023-05-24T09:32:13;7.70;;;4.80;;
8040;SDS011;4063;48.140;10.250;2023-05-24T09:34:39;8.15;;;4.50;;
8040;SDS011;4063;48.140;10.250;2023-05-24T09:37:05;9.93;;;4.90;;
8040;SDS011;4063;48.140;10.250;2023-05-24T09:39:33;7.20;;;3.90;;
8040;SDS011;4063;48.140;10.250;2023-05-24T09:42:00;8.82;;;4.57;;
8040;SDS011;4063;48.140;10.250;2023-05-24T09:44:27;8.50;;;4.72;;
8040;SDS011;4063;48.140;10.250;2023-05-24T09:46:54;12.18;;;5.10;;
8040;SDS011;4063;48.140;10.250;2023-05-24T09:49:26;9.70;;;4.55;;
8040;SDS011;4063;48.140;10.250;2023-05-24T09:51:52;10.52;;;4.68;;
8040;SDS011;4063;48.140;10.250;2023-05-24T09:54:19;7.20;;;4.03;;
8040;SDS011;4063;48.140;10.250;2023-05-24T09:56:45;9.77;;;5.07;;
8040;SDS011;4063;48.140;10.250;2023-05-24T09:59:12;11.50;;;5.32;;
8040;SDS011;4063;48.140;10.250;2023-05-24T10:01:39;7.70;;;5.07;;
8040;SDS011;4063;48.140;10.250;2023-05-24T10:04:05;9.88;;;5.47;;
8040;SDS011;4063;48.140;10.250;2023-05-24T10:06:34;9.27;;;4.80;;
8040;SDS011;4063;48.140;10.250;2023-05-24T10:09:02;12.95;;;5.30;;
8040;SDS011;4063;48.140;10.250;2023-05-24T10:11:33;10.80;;;5.43;;
8040;SDS011;4063;48.140;10.250;2023-05-24T10:14:00;9.43;;;5.20;;
8040;SDS011;4063;48.140;10.250;2023-05-24T10:16:27;10.60;;;5.15;;
8040;SDS011;4063;48.140;10.250;2023-05-24T10:18:53;7.43;;;4.50;;
8040;SDS011;4063;48.140;10.250;2023-05-24T10:21:20;8.05;;;4.55;;
8040;SDS011;4063;48.140;10.250;2023-05-24T10:23:50;11.13;;;5.25;;
8040;SDS011;4063;48.140;10.250;2023-05-24T10:26:17;6.93;;;4.75;;
8040;SDS011;4063;48.140;10.250;2023-05-24T10:28:47;9.70;;;4.80;;
8040;SDS011;4063;48.140;10.250;2023-05-24T10:31:17;13.85;;;5.35;;
8040;SDS011;4063;48.140;10.250;2023-05-24T10:33:46;12.90;;;4.75;;
8040;SDS011;4063;48.140;10.250;2023-05-24T10:36:13;10.00;;;4.40;;
8040;SDS011;4063;48.140;10.250;2023-05-24T10:38:40;11.00;;;4.40;;
8040;SDS011;4063;48.140;10.250;2023-05-24T10:41:06;10.93;;;4.78;;
8040;SDS011;4063;48.140;10.250;2023-05-24T10:43:33;8.88;;;5.13;;
8040;SDS011;4063;48.140;10.250;2023-05-24T10:46:02;11.23;;;6.18;;
8040;SDS011;4063;48.140;10.250;2023-05-24T10:50:55;12.20;;;5.32;;
8040;SDS011;4063;48.140;10.250;2023-05-24T10:53:21;14.65;;;5.03;;
8040;SDS011;4063;48.140;10.250;2023-05-24T10:55:51;12.38;;;5.43;;
8040;SDS011;4063;48.140;10.250;2023-05-24T10:58:18;11.02;;;5.80;;
8040;SDS011;4063;48.140;10.250;2023-05-24T11:00:44;7.63;;;5.10;;
8040;SDS011;4063;48.140;10.250;2023-05-24T11:03:10;9.82;;;5.28;;
8040;SDS011;4063;48.140;10.250;2023-05-24T11:08:32;9.65;;;4.55;;
8040;SDS011;4063;48.140;10.250;2023-05-24T11:13:33;11.13;;;5.50;;
8040;SDS011;4063;48.140;10.250;2023-05-24T11:16:01;13.15;;;4.95;;
8040;SDS011;4063;48.140;10.250;2023-05-24T11:18:27;13.95;;;4.93;;
8040;SDS011;4063;48.140;10.250;2023-05-24T11:20:53;7.82;;;4.50;;
8040;SDS011;4063;48.140;10.250;2023-05-24T11:23:21;9.15;;;5.22;;
8040;SDS011;4063;48.140;10.250;2023-05-24T11:25:47;7.90;;;4.43;;
8040;SDS011;4063;48.140;10.250;2023-05-24T11:28:13;8.73;;;4.45;;
8040;SDS011;4063;48.140;10.250;2023-05-24T11:30:43;7.35;;;4.65;;
8040;SDS011;4063;48.140;10.250;2023-05-24T11:33:13;9.88;;;5.13;;
8040;SDS011;4063;48.140;10.250;2023-05-24T11:35:39;7.93;;;4.68;;
8040;SDS011;4063;48.140;10.250;2023-05-24T11:38:15;15.13;;;5.72;;
8040;SDS011;4063;48.140;10.250;2023-05-24T11:40:41;9.68;;;5.63;;
8040;SDS011;4063;48.140;10.250;2023-05-24T11:43:11;7.70;;;4.93;;
8040;SDS011;4063;48.140;10.250;2023-05-24T11:45:41;9.48;;;4.60;;
8040;SDS011;4063;48.140;10.250;2023-05-24T11:48:10;8.02;;;4.40;;
8040;SDS011;4063;48.140;10.250;2023-05-24T11:50:37;14.13;;;4.90;;
8040;SDS011;4063;48.140;10.250;2023-05-24T11:53:03;11.70;;;4.45;;
8040;SDS011;4063;48.140;10.250;2023-05-24T11:55:29;8.60;;;4.72;;
8040;SDS011;4063;48.140;10.250;2023-05-24T11:57:57;10.52;;;4.85;;
8040;SDS011;4063;48.140;10.250;2023-05-24T12:00:26;14.68;;;5.47;;
8040;SDS011;4063;48.140;10.250;2023-05-24T12:02:55;11.60;;;5.18;;
8040;SDS011;4063;48.140;10.250;2023-05-24T12:05:25;8.93;;;4.55;;
8040;SDS011;4063;48.140;10.250;2023-05-24T12:08:00;9.40;;;5.25;;
8040;SDS011;4063;48.140;10.250;2023-05-24T12:10:26;9.40;;;4.35;;
8040;SDS011;4063;48.140;10.250;2023-05-24T12:12:52;11.10;;;4.97;;
8040;SDS011;4063;48.140;10.250;2023-05-24T12:15:18;11.18;;;4.55;;
8040;SDS011;4063;48.140;10.250;2023-05-24T12:17:46;8.52;;;4.78;;
8040;SDS011;4063;48.140;10.250;2023-05-24T12:20:14;9.20;;;4.40;;
8040;SDS011;4063;48.140;10.250;2023-05-24T12:22:46;7.10;;;3.78;;
8040;SDS011;4063;48.140;10.250;2023-05-24T12:25:15;10.38;;;4.43;;
8040;SDS011;4063;48.140;10.250;2023-05-24T12:27:44;6.45;;;4.47;;
8040;SDS011;4063;48.140;10.250;2023-05-24T12:30:12;7.72;;;4.20;;
8040;SDS011;4063;48.140;10.250;2023-05-24T12:32:42;11.18;;;4.38;;
8040;SDS011;4063;48.140;10.250;2023-05-24T12:35:09;7.57;;;4.30;;
8040;SDS011;4063;48.140;10.250;2023-05-24T12:37:35;10.75;;;4.00;;
8040;SDS011;4063;48.140;10.250;2023-05-24T12:40:01;11.63;;;3.97;;
8040;SDS011;4063;48.140;10.250;2023-05-24T12:42:29;7.68;;;4.25;;
8040;SDS011;4063;48.140;10.250;2023-05-24T12:44:55;4.95;;;3.70;;
8040;SDS011;4063;48.140;10.250;2023-05-24T12:47:21;6.95;;;3.63;;
8040;SDS011;4063;48.140;10.250;2023-05-24T12:49:47;8.82;;;4.55;;
8040;SDS011;4063;48.140;10.250;2023-05-24T12:52:13;6.88;;;4.05;;
8040;SDS011;4063;48.140;10.250;2023-05-24T12:54:39;8.00;;;3.85;;
8040;SDS011;4063;48.140;10.250;2023-05-24T12:57:05;7.22;;;4.18;;
8040;SDS011;4063;48.140;10.250;2023-05-24T12:59:31;8.70;;;4.15;;
8040;SDS011;4063;48.140;10.250;2023-05-24T13:01:57;10.65;;;4.40;;
8040;SDS011;4063;48.140;10.250;2023-05-24T13:04:24;9.13;;;4.30;;
8040;SDS011;4063;48.140;10.250;2023-05-24T13:06:50;7.45;;;4.47;;
8040;SDS011;4063;48.140;10.250;2023-05-24T13:09:16;8.60;;;4.72;;
8040;SDS011;4063;48.140;10.250;2023-05-24T13:11:45;9.82;;;4.50;;
8040;SDS011;4063;48.140;10.250;2023-05-24T13:14:11;10.32;;;4.07;;
8040;SDS011;4063;48.140;10.250;2023-05-24T13:16:37;8.02;;;3.95;;
8040;SDS011;4063;48.140;10.250;2023-05-24T13:19:03;8.30;;;4.05;;
8040;SDS011;4063;48.140;10.250;2023-05-24T13:21:29;8.13;;;3.47;;
8040;SDS011;4063;48.140;10.250;2023-05-24T13:23:55;9.18;;;4.40;;
8040;SDS011;4063;48.140;10.250;2023-05-24T13:26:21;11.25;;;5.40;;
8040;SDS011;4063;48.140;10.250;2023-05-24T13:28:48;12.48;;;5.18;;
8040;SDS011;4063;48.140;10.250;2023-05-24T13:31:14;12.18;;;4.50;;
8040;SDS011;4063;48.140;10.250;2023-05-24T13:33:40;10.65;;;5.13;;
8040;SDS011;4063;48.140;10.250;2023-05-24T13:36:06;10.93;;;4.10;;
8040;SDS011;4063;48.140;10.250;2023-05-24T13:38:32;9.85;;;4.97;;
8040;SDS011;4063;48.140;10.250;2023-05-24T13:40:58;8.48;;;4.65;;
8040;SDS011;4063;48.140;10.250;2023-05-24T13:43:24;10.52;;;4.72;;
8040;SDS011;4063;48.140;10.250;2023-05-24T13:45:50;7.28;;;4.50;;
8040;SDS011;4063;48.140;10.250;2023-05-24T13:48:16;12.82;;;4.75;;
8040;SDS011;4063;48.140;10.250;2023-05-24T13:50:42;10.75;;;4.75;;
8040;SDS011;4063;48.140;10.250;2023-05-24T13:53:09;10.60;;;4.85;;
8040;SDS011;4063;48.140;10.250;2023-05-24T13:55:36;10.82;;;4.82;;
8040;SDS011;4063;48.140;10.250;2023-05-24T13:58:02;8.95;;;5.05;;
8040;SDS011;4063;48.140;10.250;2023-05-24T14:00:29;10.82;;;5.13;;
8040;SDS011;4063;48.140;10.250;2023-05-24T14:02:55;10.73;;;5.18;;
8040;SDS011;4063;48.140;10.250;2023-05-24T14:05:22;7.78;;;4.60;;
8040;SDS011;4063;48.140;10.250;2023-05-24T14:07:48;12.60;;;5.00;;
8040;SDS011;4063;48.140;10.250;2023-05-24T14:10:14;8.32;;;5.00;;
8040;SDS011;4063;48.140;10.250;2023-05-24T14:12:40;12.15;;;5.43;;
8040;SDS011;4063;48.140;10.250;2023-05-24T14:15:06;9.60;;;4.43;;
8040;SDS011;4063;48.140;10.250;2023-05-24T14:17:33;10.00;;;5.22;;
8040;SDS011;4063;48.140;10.250;2023-05-24T14:19:59;8.10;;;5.03;;
8040;SDS011;4063;48.140;10.250;2023-05-24T14:22:25;14.15;;;5.40;;
8040;SDS011;4063;48.140;10.250;2023-05-24T14:24:53;13.30;;;5.00;;
8040;SDS011;4063;48.140;10.250;2023-05-24T14:27:19;13.15;;;5.13;;
8040;SDS011;4063;48.140;10.250;2023-05-24T14:29:45;9.85;;;4.80;;
8040;SDS011;4063;48.140;10.250;2023-05-24T14:32:11;11.88;;;5.07;;
8040;SDS011;4063;48.140;10.250;2023-05-24T14:34:37;11.20;;;5.35;;
8040;SDS011;4063;48.140;10.250;2023-05-24T14:37:03;8.82;;;5.13;;
8040;SDS011;4063;48.140;10.250;2023-05-24T14:39:30;8.23;;;5.10;;
8040;SDS011;4063;48.140;10.250;2023-05-24T14:41:56;15.02;;;5.18;;
8040;SDS011;4063;48.140;10.250;2023-05-24T14:44:22;10.32;;;4.85;;
8040;SDS011;4063;48.140;10.250;2023-05-24T14:46:48;15.02;;;5.60;;
8040;SDS011;4063;48.140;10.250;2023-05-24T14:49:13;10.45;;;4.85;;
8040;SDS011;4063;48.140;10.250;2023-05-24T14:51:39;9.63;;;4.50;;
8040;SDS011;4063;48.140;10.250;2023-05-24T14:54:06;11.45;;;5.45;;
8040;SDS011;4063;48.140;10.250;2023-05-24T14:56:32;14.00;;;5.30;;
8040;SDS011;4063;48.140;10.250;2023-05-24T14:58:58;7.65;;;4.85;;
8040;SDS011;4063;48.140;10.250;2023-05-24T15:01:24;13.18;;;5.43;;
8040;SDS011;4063;48.140;10.250;2023-05-24T15:03:50;9.80;;;4.75;;
8040;SDS011;4063;48.140;10.250;2023-05-24T15:06:16;11.00;;;5.20;;
8040;SDS011;4063;48.140;10.250;2023-05-24T15:08:42;14.02;;;5.22;;
8040;SDS011;4063;48.140;10.250;2023-05-24T15:11:08;10.30;;;5.13;;
8040;SDS011;4063;48.140;10.250;2023-05-24T15:13:35;11.00;;;4.85;;